createdAt,value
2019-03-28T00:00:12.633Z,66.29
2019-03-28T00:01:16.136Z,66.34
2019-03-28T00:02:20.046Z,66.76
2019-03-28T00:03:23.493Z,66.93
2019-03-28T00:04:26.990Z,66.84
2019-03-28T00:05:30.421Z,66.73
2019-03-28T00:06:33.850Z,66.70
2019-03-28T00:07:37.328Z,66.71
2019-03-28T00:08:41.117Z,66.83
2019-03-28T00:09:45.141Z,66.96
2019-03-28T00:10:48.623Z,66.96
2019-03-28T00:11:52.068Z,67.07
2019-03-28T00:12:55.504Z,67.23
2019-03-28T00:13:58.950Z,67.17
2019-03-28T00:15:02.531Z,67.03
2019-03-28T00:16:06.091Z,66.98
2019-03-28T00:17:09.570Z,66.97
2019-03-28T00:18:12.980Z,66.95
2019-03-28T00:19:16.407Z,66.95
2019-03-28T00:20:19.984Z,66.96
2019-03-28T00:21:23.460Z,66.98
2019-03-28T00:22:34.221Z,66.95
2019-03-28T00:23:42.131Z,66.89
2019-03-28T00:24:47.289Z,66.82
2019-03-28T00:25:50.809Z,66.89
2019-03-28T00:26:54.316Z,66.93
2019-03-28T00:27:57.769Z,67.01
2019-03-28T00:29:01.268Z,66.98
2019-03-28T00:30:06.522Z,67.07
2019-03-28T00:31:09.953Z,67.18
2019-03-28T00:32:13.478Z,67.06
2019-03-28T00:33:16.972Z,67.08
2019-03-28T00:34:20.406Z,67.03
2019-03-28T00:35:23.849Z,67.00
2019-03-28T00:36:27.357Z,66.93
2019-03-28T00:37:30.814Z,66.91
2019-03-28T00:38:34.245Z,67.04
2019-03-28T00:39:37.673Z,67.14
2019-03-28T00:40:41.195Z,67.29
2019-03-28T00:41:45.120Z,67.37
2019-03-28T00:42:48.672Z,67.15
2019-03-28T00:43:52.113Z,67.07
2019-03-28T00:44:55.547Z,67.01
2019-03-28T00:45:58.978Z,66.93
2019-03-28T00:47:02.417Z,66.81
2019-03-28T00:48:05.883Z,66.77
2019-03-28T00:49:09.311Z,66.69
2019-03-28T00:50:13.183Z,66.65
2019-03-28T00:51:16.684Z,66.64
2019-03-28T00:52:20.111Z,66.66
2019-03-28T00:53:23.572Z,66.72
2019-03-28T00:54:27.009Z,66.80
2019-03-28T00:55:30.454Z,66.85
2019-03-28T00:56:45.221Z,66.87
2019-03-28T00:57:39.080Z,66.80
2019-03-28T00:58:42.585Z,66.83
2019-03-28T00:59:46.039Z,66.74
2019-03-28T01:00:49.547Z,66.76
2019-03-28T01:01:52.972Z,66.75
2019-03-28T01:02:56.430Z,66.75
2019-03-28T01:03:59.937Z,66.76
2019-03-28T01:05:04.628Z,66.78
2019-03-28T01:06:08.127Z,66.80
2019-03-28T01:07:11.562Z,66.71
2019-03-28T01:08:15.021Z,66.73
2019-03-28T01:09:18.476Z,66.69
2019-03-28T01:10:22.228Z,66.75
2019-03-28T01:11:25.795Z,66.77
2019-03-28T01:12:29.290Z,66.72
2019-03-28T01:13:32.738Z,66.59
2019-03-28T01:14:36.166Z,66.56
2019-03-28T01:15:39.605Z,66.56
2019-03-28T01:16:43.035Z,66.47
2019-03-28T01:17:46.536Z,66.40
2019-03-28T01:18:50.057Z,66.39
2019-03-28T01:19:53.489Z,66.37
2019-03-28T01:20:56.917Z,66.33
2019-03-28T01:22:00.423Z,66.40
2019-03-28T01:23:03.856Z,66.47
2019-03-28T01:24:07.310Z,66.56
2019-03-28T01:25:10.878Z,66.62
2019-03-28T01:26:14.385Z,66.59
2019-03-28T01:27:17.887Z,66.56
2019-03-28T01:28:21.323Z,66.54
2019-03-28T01:29:24.800Z,66.52
2019-03-28T01:30:28.227Z,66.56
2019-03-28T01:31:31.662Z,66.60
2019-03-28T01:32:35.162Z,66.65
2019-03-28T01:33:38.611Z,66.63
2019-03-28T01:34:42.132Z,66.57
2019-03-28T01:35:45.560Z,66.56
2019-03-28T01:36:48.999Z,66.54
2019-03-28T01:37:52.425Z,66.55
2019-03-28T01:38:55.856Z,66.58
2019-03-28T01:39:59.308Z,66.46
2019-03-28T01:41:02.757Z,66.36
2019-03-28T01:42:06.345Z,66.48
2019-03-28T01:43:09.701Z,66.59
2019-03-28T01:44:13.203Z,66.66
2019-03-28T01:45:16.664Z,66.70
2019-03-28T01:46:20.124Z,66.71
2019-03-28T01:47:23.625Z,66.76
2019-03-28T01:48:27.057Z,66.80
2019-03-28T01:49:30.489Z,66.93
2019-03-28T01:50:33.941Z,67.04
2019-03-28T01:51:37.440Z,66.94
2019-03-28T01:52:40.874Z,66.87
2019-03-28T01:53:44.322Z,66.76
2019-03-28T01:54:47.825Z,66.67
2019-03-28T01:55:51.274Z,66.53
2019-03-28T01:56:54.709Z,66.38
2019-03-28T01:57:58.147Z,66.42
2019-03-28T01:59:01.660Z,66.41
2019-03-28T02:00:07.735Z,66.37
2019-03-28T02:01:11.323Z,66.40
2019-03-28T02:02:14.860Z,66.37
2019-03-28T02:03:18.314Z,66.41
2019-03-28T02:04:21.756Z,66.51
2019-03-28T02:05:25.185Z,66.54
2019-03-28T02:06:28.650Z,66.59
2019-03-28T02:07:32.085Z,66.63
2019-03-28T02:08:35.546Z,66.68
2019-03-28T02:09:39.044Z,66.64
2019-03-28T02:10:42.624Z,66.78
2019-03-28T02:11:46.080Z,66.99
2019-03-28T02:12:49.511Z,67.13
2019-03-28T02:13:53.079Z,67.20
2019-03-28T02:14:56.503Z,67.25
2019-03-28T02:15:59.947Z,67.35
2019-03-28T02:17:03.399Z,67.33
2019-03-28T02:18:06.967Z,67.24
2019-03-28T02:19:10.394Z,67.26
2019-03-28T02:20:13.960Z,67.17
2019-03-28T02:21:17.460Z,67.09
2019-03-28T02:22:20.911Z,67.08
2019-03-28T02:23:24.346Z,67.09
2019-03-28T02:24:27.784Z,67.01
2019-03-28T02:25:31.213Z,66.99
2019-03-28T02:26:34.654Z,67.01
2019-03-28T02:27:38.098Z,66.98
2019-03-28T02:28:41.543Z,67.04
2019-03-28T02:29:45.051Z,67.13
2019-03-28T02:30:48.497Z,67.20
2019-03-28T02:31:51.917Z,67.23
2019-03-28T02:32:55.382Z,67.20
2019-03-28T02:33:58.855Z,67.22
2019-03-28T02:35:02.337Z,67.17
2019-03-28T02:36:05.759Z,67.08
2019-03-28T02:37:09.330Z,67.09
2019-03-28T02:38:12.909Z,67.08
2019-03-28T02:39:16.456Z,67.06
2019-03-28T02:40:19.956Z,66.93
2019-03-28T02:41:23.380Z,67.03
2019-03-28T02:42:27.760Z,67.42
2019-03-28T02:43:31.546Z,67.55
2019-03-28T02:44:35.006Z,67.58
2019-03-28T02:45:38.594Z,67.62
2019-03-28T02:46:42.030Z,67.63
2019-03-28T02:47:45.464Z,67.52
2019-03-28T02:48:48.934Z,67.46
2019-03-28T02:49:52.368Z,67.67
2019-03-28T02:50:55.878Z,67.93
2019-03-28T02:51:59.321Z,68.01
2019-03-28T02:53:02.755Z,68.07
2019-03-28T02:54:06.278Z,67.98
2019-03-28T02:55:09.908Z,67.98
2019-03-28T02:56:13.420Z,68.06
2019-03-28T02:57:16.846Z,67.98
2019-03-28T02:58:20.284Z,67.93
2019-03-28T02:59:23.726Z,67.97
2019-03-28T03:00:27.158Z,67.86
2019-03-28T03:01:30.591Z,67.90
2019-03-28T03:02:34.015Z,67.92
2019-03-28T03:03:37.455Z,67.97
2019-03-28T03:04:40.906Z,68.00
2019-03-28T03:05:44.335Z,67.98
2019-03-28T03:06:47.847Z,67.98
2019-03-28T03:07:51.283Z,68.00
2019-03-28T03:08:54.855Z,68.04
2019-03-28T03:09:58.325Z,68.23
2019-03-28T03:11:01.762Z,68.26
2019-03-28T03:12:05.269Z,68.15
2019-03-28T03:13:09.996Z,68.14
2019-03-28T03:14:13.482Z,68.04
2019-03-28T03:15:17.075Z,68.09
2019-03-28T03:16:20.580Z,68.09
2019-03-28T03:17:24.014Z,68.15
2019-03-28T03:18:27.452Z,68.24
2019-03-28T03:19:30.878Z,68.40
2019-03-28T03:20:34.323Z,68.53
2019-03-28T03:21:37.784Z,68.59
2019-03-28T03:22:41.218Z,68.71
2019-03-28T03:23:44.654Z,68.78
2019-03-28T03:24:48.225Z,68.82
2019-03-28T03:25:51.742Z,68.85
2019-03-28T03:26:55.308Z,68.91
2019-03-28T03:27:59.395Z,69.06
2019-03-28T03:29:02.945Z,69.10
2019-03-28T03:30:09.921Z,69.17
2019-03-28T03:31:13.522Z,69.12
2019-03-28T03:32:17.010Z,69.17
2019-03-28T03:33:20.602Z,69.18
2019-03-28T03:34:24.014Z,69.23
2019-03-28T03:35:28.415Z,69.38
2019-03-28T03:36:32.002Z,69.40
2019-03-28T03:37:35.441Z,69.45
2019-03-28T03:38:38.864Z,69.47
2019-03-28T03:39:42.375Z,69.54
2019-03-28T03:40:45.878Z,69.58
2019-03-28T03:41:49.427Z,69.59
2019-03-28T03:42:52.838Z,69.71
2019-03-28T03:43:56.353Z,69.76
2019-03-28T03:44:59.860Z,69.76
2019-03-28T03:46:03.321Z,69.86
2019-03-28T03:47:06.798Z,69.92
2019-03-28T03:48:10.240Z,70.01
2019-03-28T03:49:13.670Z,70.06
2019-03-28T03:50:20.155Z,70.19
2019-03-28T03:51:23.681Z,70.41
2019-03-28T03:52:27.132Z,70.54
2019-03-28T03:53:30.549Z,70.59
2019-03-28T03:54:33.980Z,70.62
2019-03-28T03:55:37.479Z,70.48
2019-03-28T03:56:40.923Z,70.41
2019-03-28T03:57:44.390Z,70.32
2019-03-28T03:58:47.815Z,70.14
2019-03-28T03:59:51.253Z,70.18
2019-03-28T04:00:54.686Z,70.16
2019-03-28T04:01:58.134Z,70.12
2019-03-28T04:03:03.206Z,70.02
2019-03-28T04:04:06.874Z,69.94
2019-03-28T04:05:10.434Z,69.71
2019-03-28T04:06:13.874Z,69.53
2019-03-28T04:07:17.327Z,69.24
2019-03-28T04:08:20.760Z,69.05
2019-03-28T04:09:24.187Z,68.89
2019-03-28T04:10:27.685Z,68.77
2019-03-28T04:11:31.136Z,68.70
2019-03-28T04:12:34.570Z,68.54
2019-03-28T04:13:38.008Z,68.55
2019-03-28T04:14:41.433Z,68.61
2019-03-28T04:15:45.007Z,68.73
2019-03-28T04:16:48.524Z,68.90
2019-03-28T04:17:51.960Z,68.94
2019-03-28T04:18:55.392Z,68.96
2019-03-28T04:19:58.978Z,69.06
2019-03-28T04:21:05.666Z,69.01
2019-03-28T04:22:09.989Z,68.97
2019-03-28T04:23:13.626Z,69.04
2019-03-28T04:24:17.064Z,68.97
2019-03-28T04:25:20.500Z,68.84
2019-03-28T04:26:25.576Z,68.84
2019-03-28T04:27:29.016Z,68.90
2019-03-28T04:28:32.857Z,68.84
2019-03-28T04:29:36.284Z,68.85
2019-03-28T04:30:39.711Z,68.91
2019-03-28T04:31:43.193Z,68.94
2019-03-28T04:32:46.855Z,69.07
2019-03-28T04:33:50.428Z,69.15
2019-03-28T04:34:53.858Z,69.27
2019-03-28T04:35:57.300Z,69.26
2019-03-28T04:37:00.743Z,69.24
2019-03-28T04:38:04.243Z,69.19
2019-03-28T04:39:07.692Z,69.24
2019-03-28T04:40:11.456Z,69.41
2019-03-28T04:41:14.882Z,69.45
2019-03-28T04:42:18.326Z,69.30
2019-03-28T04:43:21.760Z,69.16
2019-03-28T04:44:25.197Z,69.05
2019-03-28T04:45:28.635Z,68.96
2019-03-28T04:46:32.131Z,68.88
2019-03-28T04:47:36.275Z,68.80
2019-03-28T04:48:39.767Z,68.78
2019-03-28T04:49:43.225Z,68.76
2019-03-28T04:50:46.642Z,68.77
2019-03-28T04:51:50.082Z,68.89
2019-03-28T04:52:53.602Z,68.90
2019-03-28T04:53:56.987Z,68.78
2019-03-28T04:55:00.467Z,68.76
2019-03-28T04:56:03.983Z,68.81
2019-03-28T04:57:07.427Z,68.77
2019-03-28T04:58:10.856Z,68.76
2019-03-28T04:59:14.839Z,68.83
2019-03-28T05:00:19.059Z,68.87
2019-03-28T05:01:22.568Z,69.00
2019-03-28T05:02:26.029Z,69.11
2019-03-28T05:03:29.467Z,69.06
2019-03-28T05:04:32.988Z,68.98
2019-03-28T05:05:36.554Z,69.04
2019-03-28T05:06:39.987Z,68.76
2019-03-28T05:07:43.435Z,68.41
2019-03-28T05:08:46.876Z,68.45
2019-03-28T05:09:50.379Z,68.38
2019-03-28T05:10:53.907Z,68.32
2019-03-28T05:11:57.405Z,68.19
2019-03-28T05:13:00.866Z,68.04
2019-03-28T05:14:04.356Z,68.04
2019-03-28T05:15:09.723Z,68.01
2019-03-28T05:16:13.153Z,68.01
2019-03-28T05:17:16.576Z,68.06
2019-03-28T05:18:20.039Z,68.07
2019-03-28T05:19:23.609Z,67.96
2019-03-28T05:20:27.046Z,68.04
2019-03-28T05:21:31.426Z,68.14
2019-03-28T05:22:35.253Z,68.12
2019-03-28T05:23:38.684Z,68.17
2019-03-28T05:24:42.113Z,68.17
2019-03-28T05:25:45.554Z,68.11
2019-03-28T05:26:48.981Z,68.06
2019-03-28T05:27:52.430Z,68.11
2019-03-28T05:28:57.879Z,68.09
2019-03-28T05:30:01.058Z,68.11
2019-03-28T05:31:04.631Z,68.11
2019-03-28T05:32:08.069Z,68.18
2019-03-28T05:33:11.525Z,68.18
2019-03-28T05:34:14.955Z,68.20
2019-03-28T05:35:18.454Z,68.24
2019-03-28T05:36:21.885Z,68.32
2019-03-28T05:37:25.313Z,68.29
2019-03-28T05:38:28.764Z,68.42
2019-03-28T05:39:32.199Z,68.51
2019-03-28T05:40:36.492Z,68.51
2019-03-28T05:41:40.095Z,68.40
2019-03-28T05:42:43.593Z,68.34
2019-03-28T05:43:47.079Z,68.27
2019-03-28T05:44:50.493Z,68.43
2019-03-28T05:45:53.923Z,68.33
2019-03-28T05:46:57.362Z,68.28
2019-03-28T05:48:00.906Z,68.35
2019-03-28T05:49:04.350Z,68.39
2019-03-28T05:50:08.119Z,68.40
2019-03-28T05:51:11.613Z,68.44
2019-03-28T05:52:15.136Z,68.39
2019-03-28T05:53:18.595Z,68.32
2019-03-28T05:54:22.033Z,68.29
2019-03-28T05:55:25.465Z,68.25
2019-03-28T05:56:28.900Z,68.20
2019-03-28T05:57:32.330Z,68.14
2019-03-28T05:58:35.797Z,68.17
2019-03-28T05:59:39.226Z,68.22
2019-03-28T06:00:42.666Z,68.26
2019-03-28T06:01:46.171Z,68.28
2019-03-28T06:02:50.476Z,68.30
2019-03-28T06:03:53.939Z,68.23
2019-03-28T06:04:57.371Z,68.20
2019-03-28T06:06:01.025Z,68.11
2019-03-28T06:07:04.427Z,68.11
2019-03-28T06:08:07.851Z,68.16
2019-03-28T06:09:11.364Z,68.17
2019-03-28T06:10:16.360Z,68.23
2019-03-28T06:11:20.284Z,68.31
2019-03-28T06:12:23.734Z,68.24
2019-03-28T06:13:27.180Z,68.12
2019-03-28T06:14:30.613Z,68.01
2019-03-28T06:15:34.083Z,67.96
2019-03-28T06:16:37.509Z,68.04
2019-03-28T06:17:40.945Z,68.02
2019-03-28T06:18:44.404Z,67.96
2019-03-28T06:19:47.906Z,68.24
2019-03-28T06:20:51.353Z,68.54
2019-03-28T06:21:54.778Z,68.43
2019-03-28T06:22:58.207Z,68.58
2019-03-28T06:24:01.654Z,68.55
2019-03-28T06:25:06.124Z,68.46
2019-03-28T06:26:09.733Z,68.21
2019-03-28T06:27:13.167Z,68.19
2019-03-28T06:28:16.595Z,68.18
2019-03-28T06:29:24.082Z,67.87
2019-03-28T06:30:25.283Z,67.83
2019-03-28T06:31:28.716Z,67.62
2019-03-28T06:32:42.226Z,67.44
2019-03-28T06:33:38.529Z,67.29
2019-03-28T06:34:42.015Z,67.32
2019-03-28T06:35:45.447Z,67.31
2019-03-28T06:36:48.952Z,67.32
2019-03-28T06:37:52.384Z,67.20
2019-03-28T06:38:55.838Z,67.04
2019-03-28T06:39:59.347Z,66.99
2019-03-28T06:41:02.779Z,66.91
2019-03-28T06:42:06.273Z,66.88
2019-03-28T06:43:11.489Z,66.67
2019-03-28T06:44:14.867Z,66.57
2019-03-28T06:45:18.367Z,66.61
2019-03-28T06:46:21.820Z,66.56
2019-03-28T06:47:25.254Z,66.59
2019-03-28T06:48:28.692Z,66.42
2019-03-28T06:49:32.151Z,66.30
2019-03-28T06:50:35.580Z,66.18
2019-03-28T06:51:39.009Z,66.06
2019-03-28T06:52:42.446Z,66.07
2019-03-28T06:53:45.949Z,65.79
2019-03-28T06:54:49.403Z,65.68
2019-03-28T06:55:52.849Z,65.30
2019-03-28T06:56:56.278Z,65.14
2019-03-28T06:57:59.697Z,65.06
2019-03-28T06:59:03.148Z,65.12
2019-03-28T07:00:08.967Z,65.01
2019-03-28T07:01:12.530Z,64.86
2019-03-28T07:02:15.915Z,64.80
2019-03-28T07:03:19.415Z,64.82
2019-03-28T07:04:22.873Z,64.67
2019-03-28T07:05:26.370Z,64.60
2019-03-28T07:06:29.804Z,64.46
2019-03-28T07:07:33.246Z,64.32
2019-03-28T07:08:36.674Z,64.36
2019-03-28T07:09:40.130Z,64.08
2019-03-28T07:10:43.615Z,63.86
2019-03-28T07:11:47.140Z,63.94
2019-03-28T07:12:50.571Z,63.81
2019-03-28T07:13:54.002Z,63.90
2019-03-28T07:14:59.624Z,64.03
2019-03-28T07:16:02.607Z,63.95
2019-03-28T07:17:06.107Z,63.85
2019-03-28T07:18:09.543Z,63.73
2019-03-28T07:19:13.036Z,63.50
2019-03-28T07:20:16.670Z,63.50
2019-03-28T07:21:20.154Z,63.59
2019-03-28T07:22:23.584Z,63.41
2019-03-28T07:23:27.015Z,63.39
2019-03-28T07:24:30.457Z,63.43
2019-03-28T07:25:33.909Z,63.16
2019-03-28T07:26:37.430Z,63.02
2019-03-28T07:27:40.865Z,62.87
2019-03-28T07:28:44.301Z,62.61
2019-03-28T07:29:51.108Z,62.26
2019-03-28T07:30:52.966Z,62.33
2019-03-28T07:31:56.397Z,62.39
2019-03-28T07:32:59.860Z,62.47
2019-03-28T07:34:03.324Z,62.21
2019-03-28T07:35:07.311Z,62.14
2019-03-28T07:36:10.847Z,61.84
2019-03-28T07:37:14.344Z,61.49
2019-03-28T07:38:17.850Z,61.65
2019-03-28T07:39:21.283Z,61.58
2019-03-28T07:40:25.607Z,61.49
2019-03-28T07:41:29.203Z,61.61
2019-03-28T07:42:32.640Z,61.68
2019-03-28T07:43:36.066Z,61.53
2019-03-28T07:44:39.499Z,61.37
2019-03-28T07:45:43.000Z,60.95
2019-03-28T07:46:47.759Z,60.81
2019-03-28T07:47:51.504Z,60.81
2019-03-28T07:48:55.167Z,60.48
2019-03-28T07:49:58.649Z,60.32
2019-03-28T07:51:02.081Z,60.66
2019-03-28T07:52:05.582Z,60.73
2019-03-28T07:53:09.157Z,60.51
2019-03-28T07:54:13.338Z,60.53
2019-03-28T07:55:17.225Z,60.14
2019-03-28T07:56:20.973Z,60.17
2019-03-28T07:57:24.447Z,60.25
2019-03-28T07:58:28.002Z,60.20
2019-03-28T07:59:31.505Z,60.17
2019-03-28T08:00:35.002Z,60.50
2019-03-28T08:01:38.466Z,60.44
2019-03-28T08:02:41.963Z,59.99
2019-03-28T08:03:45.383Z,59.64
2019-03-28T08:04:48.886Z,59.26
2019-03-28T08:05:52.385Z,59.53
2019-03-28T08:06:55.936Z,59.85
2019-03-28T08:07:59.451Z,60.03
2019-03-28T08:09:03.730Z,59.87
2019-03-28T08:10:08.896Z,59.74
2019-03-28T08:11:12.405Z,59.64
2019-03-28T08:12:22.623Z,59.70
2019-03-28T08:13:21.133Z,59.36
2019-03-28T08:14:24.700Z,58.56
2019-03-28T08:15:28.210Z,58.56
2019-03-28T08:16:31.809Z,58.74
2019-03-28T08:17:35.330Z,58.77
2019-03-28T08:18:38.781Z,58.77
2019-03-28T08:19:42.537Z,58.74
2019-03-28T08:20:46.076Z,58.67
2019-03-28T08:21:49.673Z,58.45
2019-03-28T08:22:53.133Z,58.34
2019-03-28T08:23:56.588Z,58.37
2019-03-28T08:25:00.183Z,58.49
2019-03-28T08:26:03.875Z,58.35
2019-03-28T08:27:07.387Z,58.41
2019-03-28T08:28:10.931Z,58.59
2019-03-28T08:29:14.313Z,58.60
2019-03-28T08:30:20.810Z,58.21
2019-03-28T08:31:24.383Z,58.31
2019-03-28T08:32:28.358Z,58.05
2019-03-28T08:33:32.664Z,58.05
2019-03-28T08:34:36.351Z,57.53
2019-03-28T08:35:40.024Z,57.53
2019-03-28T08:36:44.822Z,57.06
2019-03-28T08:37:48.503Z,57.51
2019-03-28T08:38:52.751Z,57.83
2019-03-28T08:39:56.326Z,57.75
2019-03-28T08:40:59.770Z,57.67
2019-03-28T08:42:03.195Z,57.67
2019-03-28T08:43:06.876Z,57.79
2019-03-28T08:44:10.778Z,57.85
2019-03-28T08:45:14.684Z,57.79
2019-03-28T08:46:18.126Z,57.61
2019-03-28T08:47:21.559Z,57.29
2019-03-28T08:48:25.259Z,57.30
2019-03-28T08:49:28.705Z,56.84
2019-03-28T08:50:32.138Z,57.01
2019-03-28T08:51:35.638Z,57.01
2019-03-28T08:52:39.155Z,56.80
2019-03-28T08:53:42.719Z,56.84
2019-03-28T08:54:46.167Z,56.71
2019-03-28T08:55:50.244Z,56.00
2019-03-28T08:56:53.805Z,56.43
2019-03-28T08:57:57.249Z,55.85
2019-03-28T08:59:00.761Z,55.35
2019-03-28T09:00:07.201Z,55.31
2019-03-28T09:01:10.840Z,55.59
2019-03-28T09:02:14.288Z,55.88
2019-03-28T09:03:17.874Z,55.80
2019-03-28T09:04:21.360Z,55.95
2019-03-28T09:05:25.050Z,55.94
2019-03-28T09:06:28.645Z,55.91
2019-03-28T09:07:32.067Z,56.10
2019-03-28T09:08:35.678Z,56.15
2019-03-28T09:09:39.325Z,56.15
2019-03-28T09:10:42.969Z,55.71
2019-03-28T09:11:46.473Z,55.58
2019-03-28T09:12:49.914Z,55.55
2019-03-28T09:13:53.414Z,55.42
2019-03-28T09:14:56.897Z,55.00
2019-03-28T09:16:00.503Z,55.07
2019-03-28T09:17:04.036Z,55.14
2019-03-28T09:18:07.489Z,55.08
2019-03-28T09:19:11.004Z,54.51
2019-03-28T09:20:14.671Z,54.97
2019-03-28T09:21:18.240Z,54.97
2019-03-28T09:22:21.746Z,55.19
2019-03-28T09:23:25.177Z,54.64
2019-03-28T09:24:28.691Z,54.63
2019-03-28T09:25:32.130Z,54.81
2019-03-28T09:26:35.697Z,54.56
2019-03-28T09:27:39.265Z,53.98
2019-03-28T09:28:42.932Z,54.29
2019-03-28T09:29:46.569Z,54.01
2019-03-28T09:30:50.073Z,54.37
2019-03-28T09:31:53.577Z,54.69
2019-03-28T09:32:57.223Z,54.34
2019-03-28T09:34:00.829Z,54.14
2019-03-28T09:35:06.213Z,54.46
2019-03-28T09:36:09.782Z,54.63
2019-03-28T09:37:13.371Z,53.85
2019-03-28T09:38:17.062Z,53.92
2019-03-28T09:39:20.548Z,53.52
2019-03-28T09:40:24.099Z,53.79
2019-03-28T09:41:27.483Z,54.10
2019-03-28T09:42:31.118Z,53.90
2019-03-28T09:43:34.544Z,54.13
2019-03-28T09:44:38.135Z,53.56
2019-03-28T09:45:41.759Z,53.25
2019-03-28T09:46:45.298Z,53.23
2019-03-28T09:47:48.862Z,53.55
2019-03-28T09:48:52.299Z,53.63
2019-03-28T09:49:55.893Z,53.13
2019-03-28T09:51:00.334Z,53.00
2019-03-28T09:52:03.951Z,53.25
2019-03-28T09:53:07.389Z,53.07
2019-03-28T09:54:10.830Z,52.59
2019-03-28T09:55:14.362Z,53.02
2019-03-28T09:57:34.187Z,53.40
2019-03-28T09:58:37.628Z,52.06
2019-03-28T09:59:41.058Z,52.52
2019-03-28T10:00:44.569Z,52.70
2019-03-28T10:01:48.007Z,52.90
2019-03-28T10:02:51.509Z,52.65
2019-03-28T10:03:54.963Z,52.46
2019-03-28T10:04:58.422Z,51.63
2019-03-28T10:14:41.624Z,52.11
2019-03-28T10:44:04.476Z,51.10
2019-03-28T11:03:54.447Z,44.23
2019-03-28T11:04:57.883Z,44.83
2019-03-28T11:14:13.778Z,42.98
2019-03-28T11:15:17.350Z,42.95
2019-03-28T11:16:20.801Z,42.15
2019-03-28T11:17:24.319Z,42.43
2019-03-28T11:24:38.827Z,41.91
2019-03-28T11:25:42.234Z,42.19
2019-03-28T11:26:45.708Z,42.11
2019-03-28T11:27:49.654Z,41.92
2019-03-28T11:33:32.940Z,41.62
2019-03-28T11:34:36.367Z,41.77
2019-03-28T11:35:39.814Z,42.19
2019-03-28T11:36:43.271Z,42.22
2019-03-28T11:37:46.705Z,42.78
2019-03-28T11:43:57.274Z,43.03
2019-03-28T11:53:26.748Z,43.58
2019-03-28T11:54:30.152Z,44.10
2019-03-28T11:55:33.649Z,44.36
2019-03-28T12:05:25.520Z,43.44
2019-03-28T12:06:28.972Z,43.33
2019-03-28T12:07:32.427Z,43.76
2019-03-28T12:08:35.867Z,42.78
2019-03-28T12:09:39.383Z,42.97
2019-03-28T12:10:42.821Z,43.00
2019-03-28T12:11:46.266Z,42.97
2019-03-28T12:12:49.736Z,42.68
2019-03-28T12:13:53.172Z,42.52
2019-03-28T12:14:56.605Z,41.44
2019-03-28T12:24:08.373Z,40.03
2019-03-28T12:25:11.966Z,39.68
2019-03-28T12:26:15.412Z,40.31
2019-03-28T12:27:18.849Z,40.39
2019-03-28T12:28:22.385Z,40.52
2019-03-28T12:29:25.896Z,40.74
2019-03-28T12:30:29.315Z,41.41
2019-03-28T12:31:33.398Z,41.14
2019-03-28T12:32:37.000Z,40.89
2019-03-28T12:33:40.442Z,41.00
2019-03-28T12:34:43.877Z,40.70
2019-03-28T12:35:47.323Z,40.77
2019-03-28T12:36:50.776Z,41.36
2019-03-28T12:37:54.224Z,40.74
2019-03-28T12:38:57.754Z,40.76
2019-03-28T12:40:01.216Z,40.59
2019-03-28T12:41:04.721Z,40.15
2019-03-28T12:42:08.164Z,40.28
2019-03-28T12:43:11.618Z,40.35
2019-03-28T12:44:15.048Z,40.48
2019-03-28T12:45:18.626Z,40.40
2019-03-28T12:46:22.146Z,40.78
2019-03-28T12:47:25.589Z,40.42
2019-03-28T12:48:29.081Z,40.33
2019-03-28T12:49:32.467Z,40.67
2019-03-28T12:50:35.903Z,41.37
2019-03-28T12:51:39.340Z,41.56
2019-03-28T12:52:42.768Z,41.96
2019-03-28T12:53:46.233Z,42.49
2019-03-28T12:54:49.681Z,42.62
2019-03-28T12:55:53.119Z,41.68
2019-03-28T12:56:58.175Z,41.56
2019-03-28T12:58:01.839Z,41.06
2019-03-28T12:59:05.321Z,40.02
2019-03-28T13:00:10.796Z,38.73
2019-03-28T13:01:14.246Z,38.56
2019-03-28T13:02:28.658Z,38.92
2019-03-28T13:03:22.839Z,38.49
2019-03-28T13:04:26.307Z,39.52
2019-03-28T13:05:29.766Z,40.30
2019-03-28T13:06:33.596Z,40.40
2019-03-28T13:07:37.190Z,39.86
2019-03-28T13:08:40.645Z,38.48
2019-03-28T13:09:44.087Z,37.48
2019-03-28T13:10:47.520Z,36.46
2019-03-28T13:11:50.955Z,36.03
2019-03-28T13:12:54.392Z,36.11
2019-03-28T13:13:57.850Z,36.74
2019-03-28T13:15:01.288Z,36.59
2019-03-28T13:16:05.479Z,36.13
2019-03-28T13:17:09.151Z,36.61
2019-03-28T13:18:12.600Z,36.81
2019-03-28T13:19:16.068Z,38.00
2019-03-28T13:20:22.149Z,36.01
2019-03-28T13:21:24.757Z,36.40
2019-03-28T13:22:28.630Z,36.16
2019-03-28T13:23:32.211Z,35.56
2019-03-28T13:24:35.678Z,35.57
2019-03-28T13:25:39.138Z,36.02
2019-03-28T13:26:42.562Z,35.92
2019-03-28T13:27:46.019Z,36.41
2019-03-28T13:28:49.460Z,37.10
2019-03-28T13:29:55.090Z,37.47
2019-03-28T13:30:58.063Z,37.94
2019-03-28T13:32:01.501Z,37.88
2019-03-28T13:33:05.010Z,38.02
2019-03-28T13:34:08.470Z,38.06
2019-03-28T13:35:12.107Z,38.54
2019-03-28T13:36:15.626Z,38.77
2019-03-28T13:37:19.088Z,38.68
2019-03-28T13:38:22.529Z,38.61
2019-03-28T13:39:25.989Z,38.73
2019-03-28T13:40:29.420Z,39.26
2019-03-28T13:41:32.857Z,39.49
2019-03-28T13:42:37.027Z,39.79
2019-03-28T13:43:40.464Z,39.92
2019-03-28T13:44:43.928Z,40.33
2019-03-28T13:45:47.356Z,40.61
2019-03-28T13:46:50.793Z,40.75
2019-03-28T13:47:54.541Z,40.81
2019-03-28T13:48:57.919Z,40.66
2019-03-28T13:50:01.374Z,40.87
2019-03-28T13:51:04.813Z,40.94
2019-03-28T13:52:08.326Z,41.04
2019-03-28T13:53:11.761Z,40.76
2019-03-28T13:54:15.351Z,40.98
2019-03-28T13:55:18.963Z,41.04
2019-03-28T13:56:22.385Z,40.97
2019-03-28T13:57:25.820Z,41.19
2019-03-28T13:58:29.247Z,41.16
2019-03-28T13:59:35.327Z,41.27
2019-03-28T14:00:37.863Z,41.70
2019-03-28T14:01:41.300Z,41.89
2019-03-28T14:02:55.664Z,41.89
2019-03-28T14:03:49.982Z,41.76
2019-03-28T14:04:53.909Z,42.10
2019-03-28T14:05:57.487Z,42.73
2019-03-28T14:07:00.996Z,42.78
2019-03-28T14:08:04.506Z,42.78
2019-03-28T14:09:08.017Z,42.47
2019-03-28T14:10:11.669Z,42.54
2019-03-28T14:11:15.117Z,42.32
2019-03-28T14:12:18.646Z,42.40
2019-03-28T14:13:22.076Z,42.51
2019-03-28T14:14:25.508Z,42.25
2019-03-28T14:15:29.095Z,42.21
2019-03-28T14:16:32.616Z,42.32
2019-03-28T14:17:36.134Z,42.44
2019-03-28T14:18:39.626Z,42.25
2019-03-28T14:19:43.097Z,42.02
2019-03-28T14:20:46.588Z,42.00
2019-03-28T14:21:50.093Z,41.92
2019-03-28T14:22:53.527Z,41.69
2019-03-28T14:23:56.980Z,41.19
2019-03-28T14:25:00.518Z,40.99
2019-03-28T14:26:04.087Z,41.15
2019-03-28T14:27:07.547Z,41.28
2019-03-28T14:28:10.961Z,41.29
2019-03-28T14:29:14.485Z,41.43
2019-03-28T14:30:18.269Z,41.71
2019-03-28T14:31:21.729Z,41.65
2019-03-28T14:32:25.239Z,41.90
2019-03-28T14:33:28.674Z,42.07
2019-03-28T14:34:32.115Z,42.32
2019-03-28T14:35:35.665Z,42.41
2019-03-28T14:36:39.170Z,42.22
2019-03-28T14:37:42.607Z,42.51
2019-03-28T14:38:46.066Z,42.59
2019-03-28T14:39:49.502Z,42.69
2019-03-28T14:40:52.967Z,42.81
2019-03-28T14:41:56.398Z,42.84
2019-03-28T14:42:59.838Z,42.99
2019-03-28T14:44:03.271Z,43.17
2019-03-28T14:45:10.972Z,43.33
2019-03-28T14:46:14.423Z,43.48
2019-03-28T14:47:17.933Z,43.50
2019-03-28T14:48:21.514Z,43.44
2019-03-28T14:49:25.093Z,43.62
2019-03-28T14:50:39.389Z,43.78
2019-03-28T14:51:42.945Z,43.61
2019-03-28T14:52:46.334Z,43.60
2019-03-28T14:53:49.773Z,43.68
2019-03-28T14:54:53.222Z,43.59
2019-03-28T14:55:57.817Z,43.76
2019-03-28T14:57:02.281Z,43.59
2019-03-28T14:58:07.141Z,43.45
2019-03-28T14:59:11.618Z,43.40
2019-03-28T15:00:34.204Z,43.82
2019-03-28T15:01:37.663Z,43.96
2019-03-28T15:02:41.108Z,44.30
2019-03-28T15:03:44.556Z,44.45
2019-03-28T15:04:48.059Z,44.28
2019-03-28T15:05:51.622Z,44.02
2019-03-28T15:06:55.094Z,44.08
2019-03-28T15:07:58.562Z,43.96
2019-03-28T15:09:01.983Z,44.00
2019-03-28T15:10:07.019Z,43.82
2019-03-28T15:11:10.521Z,43.57
2019-03-28T15:12:13.975Z,43.47
2019-03-28T15:13:17.545Z,43.45
2019-03-28T15:14:21.055Z,43.31
2019-03-28T15:15:24.563Z,42.94
2019-03-28T15:16:28.011Z,42.83
2019-03-28T15:17:31.465Z,42.71
2019-03-28T15:18:34.913Z,42.60
2019-03-28T15:19:38.339Z,42.82
2019-03-28T15:20:41.849Z,42.59
2019-03-28T15:21:45.308Z,42.62
2019-03-28T15:22:48.757Z,42.69
2019-03-28T15:23:52.272Z,42.58
2019-03-28T15:24:55.697Z,42.70
2019-03-28T15:25:59.141Z,42.38